首页
METAR-TAF:

METAR-TAF

机场 :

拉姆施泰因空军基地, 德国

纬度: 49-26N, 经度: 007-36E, 海拔: 238米

当前天气观测

该预报发布于50分钟前的10:56 UTC
风速5节,风向西南
温度 21°C
湿度 69%
气压 1014 hPa
能见度10公里或以上
散云层高于1600英尺
多云层高于2500英尺
多云层高于18000英尺

METAR: ETAR 201056Z 22005KT 9999 SCT016 BKN025 BKN180 21/15 A2993 RMK AO2A RAB32E42DZB42E48 SLP131 P0000 T02080153

时间: 13:46 (11:46 UTC)

预报

该预报发布于1小时和38分钟前的10:08 UTC
预报有效从20日的 10点(UTC)到 21日的 16点(UTC)
风速12节,风向西转西南
能見度: 9000
多云层高于2500英尺
多云层高于5500英尺
小阵雨
短暂存在
从 20日的 11点(UTC)到 20日的 18点(UTC)
风速10节,风向西,有时为20节阵风
能見度: 8000
多云层高于2000英尺, 积雨云.
雷暴, 小雨
成为
从 20日的 17点(UTC)到 20日的 18点(UTC)
风速6节,风向多变
能見度: 9000
多云层高于4000英尺
小阵雨
成为
从 21日的 00点(UTC)到 21日的 01点(UTC)
风速6节,风向多变
能见度10公里或以上
散云层高于4000英尺
多云层高于7500英尺

TAF: ETAR 201008Z 2010/2116 24012KT 9000 -SHRA BKN025 BKN055 QNH2990INS TEMPO 2011/2018 26010G20KT 8000 -TSRA BKN020CB BECMG 2017/2018 VRB06KT 9000 -SHRA BKN040 QNH2994INS BECMG 2100/2101 VRB06KT 9999 NSW SCT040 BKN075 QNH3003INS TX25/2014Z TN11/2104Z

超过4000个机场的气象观测和天气预报(METAR&TAF报告)。

可查询的气象台以黄色和红色小点在地图上表示。

将鼠标移到小点上方,可查看气象台名称。

然后点击查看天气观测和预报。

如需切换地图:点击带黑十字的绿色按钮放大地图;点击带横线的绿色按钮缩小地图;或者点击绿色箭头查看邻近地区的地图。


METAR-TAF: